Time;durP1;ratioP1;P1;durP2;ratioP2;P2;SDS_P1;SDS_P2;PMS_P1;PMS_P2;Temp;Humidity;BMP_temperature;BMP_pressure;BME280_temperature;BME280_humidity;BME280_pressure;Samples;Min_cycle;Max_cycle;Signal;HPM_P1;HPM_P2
2022/04/21 00:01:36;;;;;;;10.40;6.18;;;;;;;7.87;68.83;101414.06;6186502;23;20005;-79
2022/04/21 00:04:01;;;;;;;9.65;6.50;;;;;;;7.80;69.45;101407.50;6186222;23;20005;-77
2022/04/21 00:06:29;;;;;;;10.45;6.50;;;;;;;7.59;69.39;101380.97;6186746;23;20414;-78
2022/04/21 00:08:55;;;;;;;9.43;5.90;;;;;;;7.16;69.39;101303.09;6186133;22;20343;-80
2022/04/21 00:11:23;;;;;;;10.38;6.28;;;;;;;7.66;70.22;101402.09;6186373;23;20008;-80
2022/04/21 00:13:49;;;;;;;9.88;6.43;;;;;;;7.57;69.96;101389.63;6186710;23;20001;-78
2022/04/21 00:16:14;;;;;;;9.95;6.47;;;;;;;7.62;69.84;101392.84;6185867;23;20005;-78
2022/04/21 00:18:39;;;;;;;10.38;6.20;;;;;;;7.43;69.96;101364.50;6186572;23;20079;-82
2022/04/21 00:21:05;;;;;;;9.48;6.03;;;;;;;7.61;69.66;101399.72;6186714;23;20005;-78
2022/04/21 00:23:31;;;;;;;10.52;6.30;;;;;;;7.54;69.96;101400.03;6186484;23;20030;-78
2022/04/21 00:26:00;;;;;;;10.50;6.30;;;;;;;7.41;70.46;101395.41;6186350;23;20127;-78
2022/04/21 00:28:26;;;;;;;12.35;6.53;;;;;;;7.28;71.07;101383.97;6186286;23;20327;-77
2022/04/21 00:30:51;;;;;;;10.07;7.00;;;;;;;7.28;71.14;101383.97;6185924;23;20012;-78
2022/04/21 00:33:17;;;;;;;10.32;6.40;;;;;;;7.26;71.43;101387.47;6185993;23;20001;-78
2022/04/21 00:35:43;;;;;;;10.00;6.22;;;;;;;7.01;71.80;101373.06;6186288;23;20005;-78
2022/04/21 00:38:08;;;;;;;9.77;6.03;;;;;;;7.27;71.33;101397.69;6159098;23;20012;-78
2022/04/21 00:40:33;;;;;;;8.65;6.28;;;;;;;7.01;72.75;101367.09;6186017;23;19997;-80
2022/04/21 00:43:00;;;;;;;8.02;6.35;;;;;;;7.12;72.62;101394.00;6185893;23;20001;-78
2022/04/21 00:45:27;;;;;;;10.40;6.47;;;;;;;7.08;73.10;101399.31;6186420;23;20051;-79
2022/04/21 00:47:55;;;;;;;9.45;6.00;;;;;;;6.83;73.03;101368.63;6185881;23;20001;-79
2022/04/21 00:50:25;;;;;;;10.40;6.13;;;;;;;7.00;73.38;101396.22;6186436;23;20005;-79
2022/04/21 00:52:53;;;;;;;9.93;6.40;;;;;;;6.56;74.15;101344.84;6186283;23;20008;-78
2022/04/21 00:55:19;;;;;;;10.05;6.82;;;;;;;6.87;73.66;101395.84;6186171;23;20009;-79
2022/04/21 00:57:46;;;;;;;10.02;6.18;;;;;;;6.82;74.54;101387.50;6186321;23;20028;-78
2022/04/21 01:00:12;;;;;;;10.30;6.80;;;;;;;6.56;74.76;101363.66;6185761;23;20001;-77
2022/04/21 01:02:55;;;;;;;9.90;6.70;;;;;;;6.76;74.16;101386.00;6185440;23;20009;-78
2022/04/21 01:05:31;;;;;;;11.68;6.70;;;;;;;6.77;73.99;101379.13;6185733;23;20016;-80
2022/04/21 01:08:06;;;;;;;12.45;7.28;;;;;;;6.67;74.49;101394.03;6185784;23;20031;-79
2022/04/21 01:10:34;;;;;;;9.63;6.88;;;;;;;6.65;74.79;101395.00;6185564;23;20040;-79
2022/04/21 01:13:00;;;;;;;9.98;7.05;;;;;;;6.57;74.43;101382.44;6185592;23;20001;-80
2022/04/21 01:15:26;;;;;;;10.75;7.40;;;;;;;6.50;75.11;101371.59;6186058;23;20005;-81
2022/04/21 01:17:53;;;;;;;10.80;6.82;;;;;;;6.60;74.93;101383.19;6185383;23;20005;-82
2022/04/21 01:20:19;;;;;;;11.32;7.32;;;;;;;6.58;75.31;101378.97;6186069;23;20043;-78
2022/04/21 01:22:48;;;;;;;9.43;6.90;;;;;;;6.48;75.50;101363.09;6159362;23;20092;-78
2022/04/21 01:25:13;;;;;;;11.10;7.18;;;;;;;6.64;75.40;101383.06;6185514;23;20068;-80
2022/04/21 01:27:40;;;;;;;10.52;7.32;;;;;;;6.55;75.69;101387.63;6185866;23;20120;-81
2022/04/21 01:30:08;;;;;;;10.50;7.53;;;;;;;6.49;75.15;101364.78;6185664;23;20145;-83
2022/04/21 01:32:35;;;;;;;10.85;7.65;;;;;;;6.58;75.45;101378.97;6185707;23;20024;-83
2022/04/21 01:35:03;;;;;;;12.95;8.10;;;;;;;6.56;75.72;101379.03;6134245;23;20043;-84
2022/04/21 01:42:56;;;;;;;10.48;7.82;;;;;;;6.52;75.61;101371.53;6185554;23;20019;-81
2022/04/21 01:45:25;;;;;;;11.98;7.53;;;;;;;6.37;76.05;101346.44;6185575;23;20080;-82
2022/04/21 01:47:50;;;;;;;12.80;7.65;;;;;;;6.50;75.72;101374.16;6185518;23;20063;-83
2022/04/21 01:50:16;;;;;;;14.57;8.07;;;;;;;6.48;75.19;101370.78;6185330;23;20076;-81
2022/04/21 01:52:42;;;;;;;12.52;7.50;;;;;;;6.43;75.02;101362.44;6185512;23;20000;-82
2022/04/21 01:55:07;;;;;;;14.35;7.93;;;;;;;6.39;74.87;101358.34;6185259;23;20005;-83
2022/04/21 01:57:33;;;;;;;11.27;7.75;;;;;;;6.50;74.81;101373.31;6185783;23;20005;-79
2022/04/21 01:59:59;;;;;;;10.10;7.80;;;;;;;6.45;75.51;101370.09;6185768;23;20344;-84
2022/04/21 02:02:24;;;;;;;12.20;7.85;;;;;;;6.36;75.15;101358.44;6185574;23;20080;-80
2022/04/21 02:04:49;;;;;;;10.95;7.80;;;;;;;6.18;75.20;101336.00;6185151;23;20040;-78
2022/04/21 02:07:15;;;;;;;23.30;8.65;;;;;;;6.39;75.03;101368.59;6185303;23;20021;-80
2022/04/21 02:09:40;;;;;;;10.45;7.40;;;;;;;6.27;75.68;101359.59;6184914;23;20036;-80
2022/04/21 02:12:06;;;;;;;11.20;8.00;;;;;;;6.23;75.17;101340.09;6185766;23;20013;-79
2022/04/21 02:14:32;;;;;;;12.30;7.60;;;;;;;6.23;75.04;101350.34;6159402;23;20016;-83
2022/04/21 02:16:57;;;;;;;11.45;7.25;;;;;;;6.38;75.25;101374.59;6185431;23;20009;-79
2022/04/21 02:19:22;;;;;;;12.35;7.80;;;;;;;6.19;74.69;101338.53;6185350;23;20005;-83
2022/04/21 02:21:48;;;;;;;12.65;7.90;;;;;;;6.28;75.55;101373.25;6185122;23;20012;-83
2022/04/21 02:26:48;;;;;;;11.27;7.70;;;;;;;5.03;74.78;101168.44;6183901;22;20025;-82
2022/04/21 02:30:10;;;;;;;10.50;7.75;;;;;;;6.28;74.76;101376.66;6185317;23;20005;-82
2022/04/21 02:32:36;;;;;;;11.00;7.38;;;;;;;6.29;74.75;101372.34;6036642;23;20034;-79
2022/04/21 02:35:16;;;;;;;10.20;7.45;;;;;;;5.54;75.12;101257.13;6037879;23;20011;-80
2022/04/21 02:37:51;;;;;;;12.70;7.18;;;;;;;5.03;74.71;101180.41;6038819;23;20314;-82
2022/04/21 02:40:22;;;;;;;12.13;7.40;;;;;;;6.08;74.57;101355.19;6038853;23;20011;-80
2022/04/21 03:10:38;;;;;;;11.85;8.15;;;;;;;4.67;75.25;101156.88;6197260;22;20095;-77
2022/04/21 03:13:14;;;;;;;11.13;7.80;;;;;;;5.90;75.08;101372.91;6187260;23;20104;-78
2022/04/21 03:15:39;;;;;;;10.65;7.45;;;;;;;5.86;75.74;101362.78;6063028;23;20015;-78
2022/04/21 03:18:04;;;;;;;10.25;7.53;;;;;;;5.85;76.10;101367.06;6160805;23;20005;-75
2022/04/21 03:25:58;;;;;;;9.77;7.10;;;;;;;5.82;75.01;101363.78;6187312;23;20079;-77
2022/04/21 03:28:23;;;;;;;12.38;7.82;;;;;;;5.80;75.09;101361.28;6187186;23;20423;-77
2022/04/21 03:30:48;;;;;;;11.50;7.55;;;;;;;5.80;74.81;101363.84;6186761;23;20001;-77
2022/04/21 03:33:13;;;;;;;12.27;7.80;;;;;;;5.79;75.03;101359.56;6186846;23;20052;-77
2022/04/21 03:35:39;;;;;;;11.18;7.68;;;;;;;5.70;74.86;101345.38;6186323;23;20009;-77
2022/04/21 03:38:04;;;;;;;12.70;7.80;;;;;;;5.76;74.82;101359.69;6186338;23;20020;-78
2022/04/21 03:40:30;;;;;;;11.98;7.65;;;;;;;5.76;74.53;101359.69;6187074;23;20092;-78
2022/04/21 03:42:55;;;;;;;13.80;7.80;;;;;;;5.63;74.50;101338.78;6186846;23;20001;-77
2022/04/21 03:45:20;;;;;;;11.77;8.48;;;;;;;5.58;74.67;101344.94;6186907;23;20423;-79
2022/04/21 03:47:46;;;;;;;10.73;7.35;;;;;;;5.59;75.06;101350.00;6186640;23;20076;-77
2022/04/21 03:50:11;;;;;;;11.00;8.07;;;;;;;5.64;75.07;101355.00;6186598;23;20005;-78
2022/04/21 03:52:36;;;;;;;12.23;8.00;;;;;;;5.70;74.46;101375.28;6186850;23;20315;-77
2022/04/21 03:55:02;;;;;;;13.18;8.10;;;;;;;5.59;75.08;101355.13;6186901;23;20392;-78
2022/04/21 03:57:28;;;;;;;12.18;7.78;;;;;;;5.68;74.19;101367.63;6160194;23;20423;-80
2022/04/21 03:59:53;;;;;;;13.38;8.02;;;;;;;5.70;74.35;101376.13;6186710;23;20001;-80
2022/04/21 04:02:19;;;;;;;13.15;7.78;;;;;;;5.70;74.22;101375.28;6186541;23;20028;-77
2022/04/21 04:04:44;;;;;;;12.15;7.97;;;;;;;5.57;74.90;101366.31;6186757;23;20088;-78
2022/04/21 04:12:39;;;;;;;12.32;8.02;;;;;;;5.63;73.87;101368.69;6186577;23;20028;-78
2022/04/21 04:15:06;;;;;;;12.77;8.00;;;;;;;5.61;74.56;101368.75;6186427;23;20068;-78
2022/04/21 04:17:31;;;;;;;12.85;7.63;;;;;;;5.60;75.20;101376.47;6186395;23;20005;-79
2022/04/21 04:19:58;;;;;;;10.27;7.50;;;;;;;5.42;74.44;101339.53;6186652;23;20088;-81
2022/04/21 04:22:26;;;;;;;12.00;7.45;;;;;;;5.36;74.35;101342.28;6185674;23;20001;-84
2022/04/21 04:24:54;;;;;;;9.75;7.25;;;;;;;5.42;74.79;101355.72;6186218;23;20047;-78
2022/04/21 04:27:24;;;;;;;10.82;7.22;;;;;;;5.38;74.25;101343.88;6186361;23;20012;-80
2022/04/21 04:29:49;;;;;;;10.63;7.20;;;;;;;5.53;74.74;101368.16;6160231;23;20009;-79
2022/04/21 04:32:15;;;;;;;11.20;7.75;;;;;;;5.55;75.29;101375.81;6186086;23;20020;-78
2022/04/21 04:34:44;;;;;;;11.70;7.68;;;;;;;5.52;74.78;101371.63;6186493;23;20008;-79
2022/04/21 04:37:10;;;;;;;10.68;7.35;;;;;;;5.60;73.83;101376.47;6186177;23;20012;-83
2022/04/21 04:39:35;;;;;;;14.57;7.82;;;;;;;5.60;74.66;101377.31;6186211;23;20004;-78
2022/04/21 04:47:42;;;;;;;11.10;7.63;;;;;;;5.32;74.51;101333.88;6095127;23;20077;-84
2022/04/21 04:50:08;;;;;;;10.35;7.60;;;;;;;5.32;74.43;101322.78;6095127;23;20010;-77
2022/04/21 04:52:33;;;;;;;12.52;8.02;;;;;;;5.48;74.91;101349.53;6095024;23;20013;-79
2022/04/21 04:54:59;;;;;;;10.77;7.80;;;;;;;5.44;74.71;101342.84;6094942;23;20397;-78
2022/04/21 04:57:24;;;;;;;12.40;8.23;;;;;;;5.70;73.98;101381.25;6094645;23;20010;-82
2022/04/21 04:59:50;;;;;;;12.80;8.25;;;;;;;5.68;74.65;101380.44;6094722;23;20081;-78
2022/04/21 05:02:20;;;;;;;12.70;8.30;;;;;;;5.73;74.67;101383.72;6095119;23;20082;-78
2022/04/21 05:04:48;;;;;;;11.20;8.13;;;;;;;5.70;75.17;101376.13;6070851;23;20013;-78
2022/04/21 05:07:14;;;;;;;12.85;7.95;;;;;;;5.82;74.65;101389.41;6094608;23;20050;-77
2022/04/21 05:09:40;;;;;;;11.00;8.10;;;;;;;5.87;74.58;101383.22;6071169;23;20086;-82
2022/04/21 05:12:06;;;;;;;11.98;8.40;;;;;;;5.93;74.71;101383.06;6120141;23;20118;-80
2022/04/21 05:14:31;;;;;;;12.50;8.18;;;;;;;5.88;74.13;101368.69;6124003;23;20049;-80
2022/04/21 05:16:59;;;;;;;15.00;7.90;;;;;;;6.06;73.75;101378.31;6123974;23;20463;-78
2022/04/21 05:19:25;;;;;;;12.38;8.77;;;;;;;6.07;73.48;101371.47;6126158;23;20037;-78
2022/04/21 05:21:50;;;;;;;13.73;8.00;;;;;;;6.16;72.85;101373.72;6185541;23;20055;-77
2022/04/21 05:24:16;;;;;;;13.02;8.90;;;;;;;6.28;72.56;101375.81;6186002;23;20008;-77
2022/04/21 05:26:43;;;;;;;14.40;8.73;;;;;;;6.23;72.10;101358.06;6185773;23;20378;-78
2022/04/21 05:32:01;;;;;;;11.82;8.02;;;;;;;6.51;71.93;101375.00;6185710;23;20016;-77
2022/04/21 05:34:28;;;;;;;11.35;8.52;;;;;;;6.57;71.87;101373.03;6186020;23;20072;-77
2022/04/21 05:36:54;;;;;;;14.52;8.75;;;;;;;6.60;71.03;101369.53;6185313;23;20071;-77
2022/04/21 05:39:21;;;;;;;12.95;8.77;;;;;;;6.67;71.02;101365.81;6185791;23;20007;-78
2022/04/21 05:41:47;;;;;;;14.98;8.15;;;;;;;6.71;70.10;101353.72;6185131;23;20008;-78
2022/04/21 05:44:13;;;;;;;11.25;8.63;;;;;;;6.76;70.55;101355.19;6185752;23;20009;-76
2022/04/21 05:46:38;;;;;;;12.48;8.60;;;;;;;7.04;71.01;101379.78;6185224;23;20331;-74
2022/04/21 05:49:05;;;;;;;11.18;8.23;;;;;;;7.66;69.08;101368.69;6186079;23;20016;-74
2022/04/21 05:51:30;;;;;;;16.77;8.20;;;;;;;9.24;64.95;101376.09;6185662;23;20422;-77
2022/04/21 05:53:57;;;;;;;10.50;7.57;;;;;;;10.45;60.14;101355.28;6185797;23;20047;-79
2022/04/21 05:56:23;;;;;;;12.45;7.35;;;;;;;11.59;57.18;101363.47;6185249;23;20450;-78
2022/04/21 05:58:48;;;;;;;11.85;7.45;;;;;;;12.60;52.73;101370.34;6185385;23;20009;-76
2022/04/21 06:01:14;;;;;;;12.02;7.10;;;;;;;13.14;51.61;101344.41;6185874;23;20327;-81
2022/04/21 06:03:39;;;;;;;11.63;7.53;;;;;;;13.85;49.75;101350.91;6185620;23;20009;-77
2022/04/21 06:06:06;;;;;;;10.65;7.45;;;;;;;14.37;48.19;101336.94;6184401;23;20431;-75
2022/04/21 06:08:32;;;;;;;10.43;7.22;;;;;;;15.11;46.74;101357.53;6186122;23;20012;-81
2022/04/21 06:10:57;;;;;;;11.32;7.60;;;;;;;15.73;45.86;101365.06;6185113;23;20013;-79
2022/04/21 06:13:24;;;;;;;12.20;6.97;;;;;;;16.61;43.53;101359.06;6185627;23;20009;-75
2022/04/21 06:15:49;;;;;;;12.57;6.95;;;;;;;17.39;41.76;101358.75;6185718;23;20005;-79
2022/04/21 06:18:14;;;;;;;12.93;8.10;;;;;;;17.41;41.23;101338.59;6185593;23;20056;-78
2022/04/21 06:20:40;;;;;;;9.45;7.05;;;;;;;17.62;39.06;101314.25;6159264;23;20005;-78
2022/04/21 06:25:59;;;;;;;12.18;7.32;;;;;;;17.39;39.05;101263.94;6185140;22;20107;-80
2022/04/21 06:28:28;;;;;;;17.20;7.72;;;;;;;18.14;39.74;101356.81;6185414;23;20029;-81
2022/04/21 06:30:54;;;;;;;15.55;7.93;;;;;;;18.50;38.49;101352.81;6159097;23;20051;-76
2022/04/21 06:33:19;;;;;;;10.55;7.22;;;;;;;18.66;38.01;101349.66;6185438;23;20411;-83
2022/04/21 06:35:54;;;;;;;10.68;7.00;;;;;;;17.61;39.00;101236.84;6185422;23;20312;-80
2022/04/21 06:38:29;;;;;;;10.25;7.38;;;;;;;17.85;39.75;101292.22;6185441;23;20001;-81
2022/04/21 06:41:26;;;;;;;10.73;7.07;;;;;;;17.30;39.89;101207.28;6185807;23;20001;-80
2022/04/21 06:49:25;;;;;;;11.45;7.47;;;;;;;19.40;35.57;101331.59;6037319;23;20050;-83
2022/04/21 06:51:50;;;;;;;10.50;6.68;;;;;;;19.44;35.34;101323.28;6036989;23;20452;-83
2022/04/21 06:54:16;;;;;;;10.02;7.28;;;;;;;19.33;35.14;101333.94;6036745;23;20027;-82
2022/04/21 06:56:43;;;;;;;10.98;6.68;;;;;;;19.71;35.28;101338.28;6036937;23;20011;-81
2022/04/21 06:59:09;;;;;;;9.82;6.72;;;;;;;20.17;34.76;101333.94;6036974;23;20505;-83
2022/04/21 07:01:35;;;;;;;11.65;6.85;;;;;;;19.88;33.96;101309.66;6036959;23;20057;-83
2022/04/21 07:04:00;;;;;;;9.65;6.57;;;;;;;20.30;33.13;101329.16;6037089;23;20422;-81
2022/04/21 07:06:26;;;;;;;9.73;6.20;;;;;;;20.31;33.79;101329.97;6037170;23;20014;-80
2022/04/21 07:08:51;;;;;;;13.20;6.97;;;;;;;20.30;33.92;101330.97;6036907;23;20389;-85
2022/04/21 07:11:20;;;;;;;9.57;7.10;;;;;;;20.30;33.82;101329.16;6036801;23;20014;-83
2022/04/21 07:13:45;;;;;;;12.90;6.90;;;;;;;18.77;35.18;101339.06;6036888;23;20016;-83
2022/04/21 07:16:10;;;;;;;12.93;7.28;;;;;;;16.97;40.08;101329.22;6036846;23;20071;-83
2022/04/21 07:18:36;;;;;;;9.50;6.72;;;;;;;15.46;42.56;101315.06;6036300;23;20481;-83
2022/04/21 07:21:03;;;;;;;10.10;6.68;;;;;;;14.65;44.63;101347.06;6116319;23;20435;-83
2022/04/21 07:23:28;;;;;;;8.70;6.53;;;;;;;13.85;46.82;101348.31;6187507;23;20008;-83
2022/04/21 07:25:54;;;;;;;12.27;6.90;;;;;;;13.26;48.18;101353.16;6186332;23;20087;-81
2022/04/21 07:28:20;;;;;;;10.90;7.22;;;;;;;12.80;50.68;101336.22;6187525;23;20024;-84
2022/04/21 07:30:46;;;;;;;10.68;6.82;;;;;;;12.66;49.31;101356.97;6187323;23;20319;-83
2022/04/21 07:33:12;;;;;;;11.63;7.40;;;;;;;12.45;51.91;101358.34;6186911;23;20005;-83
2022/04/21 07:35:37;;;;;;;10.50;6.57;;;;;;;12.42;52.92;101354.19;6158796;23;20304;-81
2022/04/21 07:38:04;;;;;;;10.88;7.07;;;;;;;12.31;52.31;101359.22;6187084;23;20043;-83
2022/04/21 07:40:29;;;;;;;11.20;7.00;;;;;;;12.25;52.14;101360.41;6186709;23;20001;-83
2022/04/21 07:42:55;;;;;;;9.98;7.18;;;;;;;12.10;53.09;101348.41;6186933;23;20492;-80
2022/04/21 07:45:23;;;;;;;8.90;6.43;;;;;;;12.13;53.03;101358.56;6186659;23;20001;-84
2022/04/21 07:47:49;;;;;;;11.85;7.15;;;;;;;12.15;53.33;101356.72;6160878;23;20326;-81
2022/04/21 07:50:14;;;;;;;8.50;6.28;;;;;;;12.18;54.25;101355.69;6186922;23;20032;-82
2022/04/21 07:55:25;;;;;;;11.63;6.80;;;;;;;12.23;54.29;101343.31;6185513;23;20342;-77
2022/04/21 07:57:55;;;;;;;12.13;7.13;;;;;;;12.34;54.13;101359.00;6186765;23;20075;-84
2022/04/21 08:00:22;;;;;;;10.43;6.78;;;;;;;12.35;53.95;101353.72;6186553;23;19997;-83
2022/04/21 08:02:48;;;;;;;9.65;7.03;;;;;;;12.29;53.92;101358.44;6186073;23;20005;-82
2022/04/21 08:05:16;;;;;;;12.40;6.53;;;;;;;12.19;53.81;101347.84;6160397;23;20001;-82
2022/04/21 08:07:42;;;;;;;9.73;6.47;;;;;;;12.26;54.40;101359.47;6187012;23;20403;-84
2022/04/21 08:10:09;;;;;;;10.77;7.22;;;;;;;12.15;54.14;101342.94;6185923;23;20080;-80
2022/04/21 08:12:46;;;;;;;12.77;6.97;;;;;;;12.40;55.19;101361.22;6186938;23;20008;-81
2022/04/21 08:15:14;;;;;;;9.98;6.75;;;;;;;12.45;54.36;101363.50;6186711;23;20008;-78
2022/04/21 08:17:40;;;;;;;8.32;6.47;;;;;;;12.44;53.96;101357.50;6186645;23;20063;-81
2022/04/21 08:20:10;;;;;;;9.13;6.55;;;;;;;12.46;54.45;101358.25;6186904;23;20435;-81
2022/04/21 08:22:36;;;;;;;7.78;5.75;;;;;;;12.46;53.50;101354.81;6186310;23;20033;-76
2022/04/21 08:33:15;;;;;;;9.18;6.07;;;;;;;12.66;53.76;101344.03;6186241;23;20047;-82
2022/04/21 08:35:41;;;;;;;8.77;5.60;;;;;;;12.64;53.93;101338.13;6186322;23;20005;-83
2022/04/21 08:38:09;;;;;;;8.82;5.45;;;;;;;12.83;53.96;101366.28;6186603;23;20001;-77
2022/04/21 08:40:36;;;;;;;9.45;6.25;;;;;;;12.74;54.56;101349.56;6186294;23;20005;-81
2022/04/21 08:43:11;;;;;;;10.50;5.40;;;;;;;12.63;53.86;101320.91;6186263;23;20013;-80
2022/04/21 08:45:37;;;;;;;7.20;5.30;;;;;;;12.90;53.56;101360.63;6186509;23;20009;-81
2022/04/21 08:48:04;;;;;;;8.45;5.50;;;;;;;13.00;53.91;101354.84;6186855;23;20009;-78
2022/04/21 08:50:31;;;;;;;8.35;5.63;;;;;;;13.12;53.38;101349.69;6159804;23;20433;-78
2022/04/21 08:53:00;;;;;;;9.32;6.00;;;;;;;13.19;53.25;101339.78;6159179;23;20088;-77
2022/04/21 08:55:25;;;;;;;9.13;5.95;;;;;;;13.33;55.35;101339.69;6186267;23;20017;-81
2022/04/21 08:57:52;;;;;;;14.70;6.53;;;;;;;13.31;52.87;101338.97;6186234;23;20330;-78
2022/04/21 09:00:18;;;;;;;7.38;5.28;;;;;;;13.31;51.92;101338.13;6186214;23;20008;-87
2022/04/21 09:02:50;;;;;;;8.38;5.30;;;;;;;13.19;52.29;101317.28;6186637;23;20084;-84
2022/04/21 09:05:16;;;;;;;9.02;5.40;;;;;;;13.29;51.92;101340.84;6157772;23;20012;-82
2022/04/21 09:07:51;;;;;;;8.75;5.55;;;;;;;13.25;51.44;101336.78;6186268;23;20131;-80
2022/04/21 09:10:18;;;;;;;8.38;4.95;;;;;;;13.34;50.22;101338.75;6186136;23;20004;-89
2022/04/21 09:12:55;;;;;;;8.15;5.25;;;;;;;13.12;50.08;101300.41;6186252;23;19997;-83
2022/04/21 09:15:33;;;;;;;10.13;5.28;;;;;;;13.19;50.58;101309.50;6186094;23;20415;-83
2022/04/21 09:18:08;;;;;;;8.35;4.72;;;;;;;13.46;49.91;101345.72;6186225;23;20005;-85
2022/04/21 09:27:09;;;;;;;8.45;5.07;;;;;;;13.77;50.31;101326.34;6117097;23;20097;-82
2022/04/21 09:29:49;;;;;;;8.77;4.30;;;;;;;13.50;49.56;101271.13;6124376;23;20495;-82
2022/04/21 09:32:18;;;;;;;7.70;4.28;;;;;;;13.47;46.22;101266.97;6074464;23;20069;-82
2022/04/21 09:35:03;;;;;;;11.02;4.72;;;;;;;12.79;47.83;101160.09;6075199;23;20005;-84
2022/04/21 09:37:28;;;;;;;6.63;4.63;;;;;;;13.43;47.10;101246.50;6123769;23;20089;-82
2022/04/21 09:40:12;;;;;;;5.32;3.80;;;;;;;13.90;46.26;101317.69;6144754;22;20103;-83
2022/04/21 09:52:00;;;;;;;6.30;2.60;;;;;;;13.95;43.05;101313.84;6185121;22;20024;-82
2022/04/21 09:54:40;;;;;;;4.63;2.83;;;;;;;12.83;43.09;101127.84;6185675;23;20073;-82
2022/04/21 09:57:25;;;;;;;5.05;2.63;;;;;;;13.34;40.14;101198.69;6188265;22;20091;-84
2022/04/21 10:00:01;;;;;;;4.43;2.58;;;;;;;14.00;41.96;101290.16;6184150;23;20009;-81
2022/04/21 10:02:29;;;;;;;5.60;2.83;;;;;;;13.83;40.92;101270.56;6185462;23;20001;-81
2022/04/21 10:05:17;;;;;;;5.80;2.97;;;;;;;14.11;41.02;101307.59;6185312;23;20008;-80
2022/04/21 10:14:47;;;;;;;5.38;3.28;;;;;;;14.21;39.51;101300.81;6183251;22;20025;-80
2022/04/21 10:26:58;;;;;;;4.65;2.78;;;;;;;14.56;40.05;101288.75;6185655;22;20435;-82
2022/04/21 10:33:27;;;;;;;4.00;2.40;;;;;;;13.93;38.43;101169.50;6185303;23;20019;-82
2022/04/21 10:35:58;;;;;;;5.90;2.47;;;;;;;14.77;40.22;101277.75;6093850;23;20011;-82
2022/04/21 11:26:06;;;;;;;7.80;3.58;;;;;;;15.23;38.47;101230.91;6185173;23;20072;-83
2022/04/21 11:28:35;;;;;;;6.90;3.47;;;;;;;14.13;38.32;101064.16;6186413;23;20017;-85
2022/04/21 11:36:16;;;;;;;6.05;3.13;;;;;;;14.98;37.90;101166.09;6185940;23;20061;-79
2022/04/21 11:49:08;;;;;;;6.07;3.45;;;;;;;15.39;36.97;101147.28;6038084;23;20095;-78
2022/04/21 11:51:36;;;;;;;5.40;3.05;;;;;;;15.25;37.17;101132.78;6038329;23;20007;-78
2022/04/21 11:54:06;;;;;;;9.27;3.33;;;;;;;15.29;38.30;101115.13;6038028;23;20090;-78
2022/04/21 11:56:32;;;;;;;7.13;3.00;;;;;;;15.95;36.52;101199.31;6037885;23;20012;-76
2022/04/21 11:59:05;;;;;;;5.45;3.17;;;;;;;16.08;37.31;101201.75;6038208;23;20070;-83
2022/04/21 12:10:14;;;;;;;10.35;3.50;;;;;;;15.53;36.61;101031.69;5953986;24;20422;-85
2022/04/21 12:12:39;;;;;;;5.93;3.30;;;;;;;15.64;35.39;101035.13;5953565;24;20005;-85
2022/04/21 12:18:53;;;;;;;5.43;2.80;;;;;;;16.89;35.35;101178.53;5953502;24;20023;-84
2022/04/21 12:27:56;;;;;;;4.75;2.65;;;;;;;16.69;36.27;101181.16;6065503;23;20011;-82
2022/04/21 12:31:29;;;;;;;5.35;2.90;;;;;;;15.56;36.09;101013.22;6068576;23;20021;-78
2022/04/21 12:37:33;;;;;;;4.20;2.35;;;;;;;15.49;35.47;101063.16;5953607;24;20073;-83
2022/04/21 12:40:12;;;;;;;4.30;2.85;;;;;;;15.38;36.76;101058.00;5953421;24;20012;-82
2022/04/21 12:42:59;;;;;;;6.13;3.15;;;;;;;15.03;35.61;100998.34;5953239;24;20012;-82
2022/04/21 12:45:30;;;;;;;6.68;3.38;;;;;;;15.74;37.04;101123.72;5953403;24;20013;-81
2022/04/21 12:47:58;;;;;;;;;;;;;;;16.12;37.42;101170.13;5930255;24;20009;-81
2022/04/21 12:51:07;;;;;;;5.88;3.20;;;;;;;16.11;37.64;101155.44;5953410;24;19913;-82
2022/04/21 12:57:51;;;;;;;5.35;3.38;;;;;;;16.13;37.67;101156.16;5962612;23;20069;-81
2022/04/21 13:03:51;;;;;;;5.68;3.58;;;;;;;16.26;37.56;101137.75;6037203;23;20018;-83
2022/04/21 13:06:37;;;;;;;7.93;3.75;;;;;;;16.38;38.41;101141.13;6037361;23;20052;-83
2022/04/21 13:09:05;;;;;;;7.65;3.83;;;;;;;15.47;39.08;100968.78;6156325;23;20032;-83
2022/04/21 13:11:48;;;;;;;5.97;3.60;;;;;;;16.16;38.92;101072.53;6156340;23;20002;-81
2022/04/21 13:14:31;;;;;;;10.15;3.78;;;;;;;16.11;38.48;101050.41;6156468;23;20002;-88
2022/04/21 13:17:02;;;;;;;6.90;3.83;;;;;;;16.16;37.17;101067.31;6155663;23;20005;-83
2022/04/21 13:19:30;;;;;;;5.78;3.10;;;;;;;16.56;39.57;101131.78;6156321;23;20006;-81
2022/04/21 13:22:01;;;;;;;7.22;3.60;;;;;;;15.50;37.46;100983.31;6156095;23;20431;-83
2022/04/21 13:25:09;;;;;;;9.95;4.10;;;;;;;16.35;39.30;101121.34;6155129;23;20013;-82
2022/04/21 13:27:46;;;;;;;6.95;3.70;;;;;;;15.20;38.53;100948.41;6156042;23;20473;-81
2022/04/21 13:30:21;;;;;;;6.40;4.05;;;;;;;15.32;38.62;100972.59;6156284;23;20009;-82
2022/04/21 13:36:25;;;;;;;8.30;4.50;;;;;;;16.24;39.45;101108.38;6155996;23;20157;-82
2022/04/21 13:38:58;;;;;;;8.18;3.83;;;;;;;15.93;39.34;101061.41;6129645;23;20032;-81
2022/04/21 13:41:35;;;;;;;8.70;3.75;;;;;;;15.45;38.99;100964.66;6156014;23;20005;-81
2022/04/21 13:44:07;;;;;;;7.68;3.90;;;;;;;15.84;38.84;101037.88;6156085;23;20028;-82
2022/04/21 13:46:48;;;;;;;7.07;3.75;;;;;;;15.41;39.34;100951.03;6156414;23;20477;-82
2022/04/21 13:49:22;;;;;;;8.57;4.25;;;;;;;16.05;39.27;101036.13;6155816;23;20312;-82
2022/04/21 13:52:11;;;;;;;7.85;3.80;;;;;;;16.53;39.40;101098.97;6155803;23;20008;-82
2022/04/21 13:55:05;;;;;;;9.25;4.85;;;;;;;16.52;39.21;101097.31;6156134;23;20005;-82
2022/04/21 14:00:32;;;;;;;8.82;4.50;;;;;;;15.58;39.82;100939.25;6193412;23;20020;-82
2022/04/21 14:06:31;;;;;;;9.63;4.95;;;;;;;16.01;39.89;101003.44;6123602;23;20021;-80
2022/04/21 14:08:56;;;;;;;9.85;4.70;;;;;;;16.42;41.67;101095.59;6123782;23;20010;-82
2022/04/21 14:11:34;;;;;;;8.10;4.40;;;;;;;15.72;41.38;100966.78;6098932;23;20141;-84
2022/04/21 14:14:15;;;;;;;8.45;4.57;;;;;;;15.39;41.44;100926.09;6124034;23;20084;-82
2022/04/21 14:16:40;;;;;;;10.00;4.80;;;;;;;15.71;42.12;100965.97;6123786;23;20446;-81
2022/04/21 14:19:21;;;;;;;7.68;4.55;;;;;;;15.35;42.03;100917.72;6123704;23;20321;-86
2022/04/21 14:22:07;;;;;;;10.10;4.50;;;;;;;16.40;43.19;101071.44;6099034;23;20006;-89
2022/04/21 14:24:43;;;;;;;6.88;4.60;;;;;;;15.39;42.00;100897.47;6094497;23;20033;-85
2022/04/21 14:27:26;;;;;;;7.15;4.43;;;;;;;15.28;42.52;100871.50;6094480;23;20022;-87
2022/04/21 14:49:17;;;;;;;8.60;4.50;;;;;;;16.40;42.19;101047.97;6187633;23;20017;-81
2022/04/21 14:51:44;;;;;;;7.07;4.38;;;;;;;16.43;42.76;101039.91;6188724;22;20053;-79
2022/04/21 14:54:26;;;;;;;10.07;4.22;;;;;;;16.14;42.50;100988.47;6134717;23;20017;-81
2022/04/21 14:56:57;;;;;;;7.18;4.63;;;;;;;15.43;43.12;100854.63;6187146;23;20035;-81
2022/04/21 14:59:37;;;;;;;8.05;4.43;;;;;;;16.30;43.25;100986.19;6161041;23;20013;-82
2022/04/21 15:02:09;;;;;;;8.02;4.70;;;;;;;15.55;43.43;100860.63;6187314;23;20096;-85
2022/04/21 15:04:56;;;;;;;17.63;4.93;;;;;;;16.44;43.30;101002.47;6136313;23;20071;-83
2022/04/21 15:07:28;;;;;;;9.18;4.10;;;;;;;15.65;43.22;100864.94;6160713;23;20122;-80
2022/04/21 15:09:59;;;;;;;14.70;4.72;;;;;;;15.66;43.51;100860.56;6186851;23;20005;-80
2022/04/21 15:12:27;;;;;;;5.90;3.60;;;;;;;16.15;43.31;100952.81;6187153;23;20009;-81
2022/04/21 15:14:53;;;;;;;8.77;4.28;;;;;;;16.75;44.14;101030.22;6187152;23;20091;-80
2022/04/21 15:17:21;;;;;;;7.40;4.30;;;;;;;16.84;43.75;101023.38;6186941;23;20051;-80
2022/04/21 15:19:47;;;;;;;8.13;4.63;;;;;;;16.90;42.99;101025.44;6187041;23;20005;-80
2022/04/21 15:22:13;;;;;;;11.45;4.60;;;;;;;17.06;43.22;101017.13;6186620;23;20009;-80
2022/04/21 15:24:38;;;;;;;10.05;4.20;;;;;;;17.39;42.50;101014.16;6187189;23;20478;-80
2022/04/21 15:27:04;;;;;;;8.50;4.38;;;;;;;17.66;42.66;101016.09;6187336;23;20323;-81
2022/04/21 15:29:38;;;;;;;9.98;4.63;;;;;;;17.56;41.90;100993.56;6186773;23;20063;-81